createdAt,value
2024-02-22T00:00:07.590Z,34.12
2024-02-22T00:00:39.098Z,34.01
2024-02-22T00:01:10.719Z,34.16
2024-02-22T00:01:42.800Z,34.01
2024-02-22T00:02:14.367Z,34.13
2024-02-22T00:02:45.904Z,34.15
2024-02-22T00:03:17.485Z,34.27
2024-02-22T00:03:49.031Z,34.13
2024-02-22T00:04:20.584Z,34.09
2024-02-22T00:04:52.239Z,33.99
2024-02-22T00:05:24.007Z,34.09
2024-02-22T00:05:55.828Z,34.04
2024-02-22T00:06:27.842Z,34.10
2024-02-22T00:06:59.373Z,34.24
2024-02-22T00:07:30.907Z,34.49
2024-02-22T00:08:02.531Z,34.53
2024-02-22T00:08:34.100Z,34.44
2024-02-22T00:09:05.546Z,34.49
2024-02-22T00:09:37.032Z,34.53
2024-02-22T00:10:08.905Z,34.52
2024-02-22T00:10:40.454Z,34.38
2024-02-22T00:11:12.006Z,34.07
2024-02-22T00:11:43.648Z,34.45
2024-02-22T00:12:15.296Z,34.55
2024-02-22T00:12:46.888Z,34.59
2024-02-22T00:13:18.427Z,34.28
2024-02-22T00:13:49.939Z,34.48
2024-02-22T00:14:21.464Z,34.47
2024-02-22T00:14:52.923Z,34.30
2024-02-22T00:15:24.581Z,34.30
2024-02-22T00:15:56.083Z,34.27
2024-02-22T00:16:27.607Z,34.45
2024-02-22T00:16:59.272Z,34.25
2024-02-22T00:17:30.789Z,34.37
2024-02-22T00:18:02.372Z,34.38
2024-02-22T00:18:34.111Z,34.51
2024-02-22T00:19:06.070Z,34.15
2024-02-22T00:19:38.006Z,34.57
2024-02-22T00:20:09.920Z,34.23
2024-02-22T00:20:41.551Z,34.33
2024-02-22T00:21:12.983Z,34.21
2024-02-22T00:21:44.603Z,34.53
2024-02-22T00:22:16.034Z,34.35
2024-02-22T00:22:47.618Z,34.35
2024-02-22T00:23:19.133Z,34.62
2024-02-22T00:23:50.710Z,34.64
2024-02-22T00:24:22.181Z,34.59
2024-02-22T00:24:53.726Z,34.65
2024-02-22T00:25:25.412Z,34.86
2024-02-22T00:25:57.110Z,34.54
2024-02-22T00:26:28.579Z,34.56
2024-02-22T00:27:00.055Z,34.53
2024-02-22T00:27:31.511Z,34.57
2024-02-22T00:28:03.119Z,34.37
2024-02-22T00:28:34.643Z,34.58
2024-02-22T00:29:06.192Z,34.77
2024-02-22T00:29:37.594Z,34.80
2024-02-22T00:30:09.136Z,34.50
2024-02-22T00:30:40.698Z,34.57
2024-02-22T00:31:12.211Z,34.49
2024-02-22T00:31:43.692Z,34.35
2024-02-22T00:32:15.281Z,34.36
2024-02-22T00:32:47.021Z,34.51
2024-02-22T00:33:18.529Z,34.71
2024-02-22T00:33:50.047Z,34.47
2024-02-22T00:34:23.735Z,34.81
2024-02-22T00:34:55.306Z,34.69
2024-02-22T00:35:27.032Z,34.42
2024-02-22T00:35:58.616Z,34.52
2024-02-22T00:36:30.093Z,34.47
2024-02-22T00:37:01.611Z,34.63
2024-02-22T00:37:33.453Z,34.63
2024-02-22T00:38:05.054Z,34.32
2024-02-22T00:38:36.606Z,34.86
2024-02-22T00:39:08.771Z,34.67
2024-02-22T00:39:40.260Z,34.68
2024-02-22T00:40:12.077Z,34.84
2024-02-22T00:40:43.703Z,34.86
2024-02-22T00:41:15.345Z,34.92
2024-02-22T00:41:47.069Z,34.69
2024-02-22T00:42:18.716Z,34.79
2024-02-22T00:42:50.182Z,34.73
2024-02-22T00:43:21.806Z,34.74
2024-02-22T00:43:53.574Z,34.53
2024-02-22T00:44:25.077Z,34.75
2024-02-22T00:44:56.605Z,34.65
2024-02-22T00:45:28.186Z,34.75
2024-02-22T00:45:59.724Z,34.47
2024-02-22T00:46:31.341Z,34.57
2024-02-22T00:47:02.941Z,34.94
2024-02-22T00:47:34.410Z,34.79
2024-02-22T00:48:06.273Z,34.58
2024-02-22T00:48:37.901Z,34.69
2024-02-22T00:49:09.446Z,34.76
2024-02-22T00:49:41.220Z,34.70
2024-02-22T00:50:13.034Z,34.70
2024-02-22T00:50:44.871Z,34.62
2024-02-22T00:51:16.502Z,34.63
2024-02-22T00:51:48.104Z,34.76
2024-02-22T00:52:19.595Z,34.47
2024-02-22T00:52:51.168Z,34.86
2024-02-22T00:53:23.441Z,34.94
2024-02-22T00:53:55.123Z,34.84
2024-02-22T00:54:26.570Z,34.58
2024-02-22T00:54:58.247Z,34.70
2024-02-22T00:55:29.832Z,34.94
2024-02-22T00:56:01.480Z,34.64
2024-02-22T00:56:33.002Z,34.62
2024-02-22T00:57:04.753Z,34.54
2024-02-22T00:57:36.355Z,34.74
2024-02-22T00:58:09.704Z,34.78
2024-02-22T00:58:41.685Z,34.82
2024-02-22T00:59:13.276Z,34.76
2024-02-22T00:59:44.858Z,34.49
2024-02-22T01:00:16.556Z,34.33
2024-02-22T01:00:48.154Z,34.51
2024-02-22T01:01:19.898Z,34.53
2024-02-22T01:01:51.743Z,34.53
2024-02-22T01:02:23.351Z,34.65
2024-02-22T01:02:54.837Z,34.68
2024-02-22T01:03:26.391Z,34.95
2024-02-22T01:03:58.109Z,34.70
2024-02-22T01:04:29.803Z,34.75
2024-02-22T01:05:01.398Z,34.84
2024-02-22T01:05:33.315Z,34.98
2024-02-22T01:06:05.229Z,34.95
2024-02-22T01:06:36.806Z,34.91
2024-02-22T01:07:08.572Z,35.20
2024-02-22T01:07:40.215Z,34.96
2024-02-22T01:08:11.872Z,34.81
2024-02-22T01:08:43.440Z,34.90
2024-02-22T01:09:14.967Z,34.94
2024-02-22T01:09:46.438Z,34.75
2024-02-22T01:10:17.993Z,34.86
2024-02-22T01:10:49.811Z,34.74
2024-02-22T01:11:21.474Z,34.86
2024-02-22T01:11:53.158Z,35.04
2024-02-22T01:12:24.740Z,34.73
2024-02-22T01:12:56.340Z,34.77
2024-02-22T01:13:27.857Z,34.78
2024-02-22T01:13:59.368Z,34.99
2024-02-22T01:14:30.868Z,34.98
2024-02-22T01:15:02.680Z,35.13
2024-02-22T01:15:36.894Z,34.56
2024-02-22T01:16:08.958Z,35.16
2024-02-22T01:16:40.552Z,34.82
2024-02-22T01:17:12.160Z,34.96
2024-02-22T01:17:43.746Z,35.05
2024-02-22T01:18:15.348Z,34.89
2024-02-22T01:18:46.823Z,34.77
2024-02-22T01:19:18.553Z,34.91
2024-02-22T01:19:50.113Z,34.95
2024-02-22T01:20:21.761Z,34.77
2024-02-22T01:20:53.249Z,35.16
2024-02-22T01:21:24.828Z,34.91
2024-02-22T01:21:56.458Z,35.05
2024-02-22T01:22:28.134Z,34.75
2024-02-22T01:22:59.898Z,34.99
2024-02-22T01:23:31.364Z,35.25
2024-02-22T01:24:02.928Z,35.11
2024-02-22T01:24:34.413Z,35.02
2024-02-22T01:25:06.171Z,35.03
2024-02-22T01:25:37.882Z,35.04
2024-02-22T01:26:09.683Z,34.98
2024-02-22T01:26:41.274Z,34.63
2024-02-22T01:27:12.822Z,34.94
2024-02-22T01:27:44.322Z,35.04
2024-02-22T01:28:15.840Z,34.85
2024-02-22T01:28:47.425Z,34.86
2024-02-22T01:29:19.036Z,34.69
2024-02-22T01:29:50.514Z,34.86
2024-02-22T01:30:22.241Z,34.86
2024-02-22T01:30:54.006Z,34.93
2024-02-22T01:31:25.468Z,34.72
2024-02-22T01:31:57.107Z,35.28
2024-02-22T01:32:28.639Z,34.96
2024-02-22T01:33:00.293Z,34.70
2024-02-22T01:33:31.938Z,34.80
2024-02-22T01:34:03.623Z,34.68
2024-02-22T01:34:35.182Z,34.95
2024-02-22T01:35:06.850Z,34.85
2024-02-22T01:35:38.551Z,35.27
2024-02-22T01:36:10.099Z,35.24
2024-02-22T01:36:41.712Z,34.97
2024-02-22T01:37:13.242Z,34.73
2024-02-22T01:37:44.841Z,34.99
2024-02-22T01:38:16.456Z,34.78
2024-02-22T01:38:47.984Z,35.12
2024-02-22T01:39:19.455Z,34.80
2024-02-22T01:39:50.863Z,35.05
2024-02-22T01:40:22.449Z,34.82
2024-02-22T01:40:54.085Z,34.87
2024-02-22T01:41:28.848Z,34.87
2024-02-22T01:42:00.769Z,35.02
2024-02-22T01:42:32.201Z,35.10
2024-02-22T01:43:03.841Z,35.10
2024-02-22T01:43:35.470Z,35.22
2024-02-22T01:44:07.099Z,35.12
2024-02-22T01:44:38.652Z,35.25
2024-02-22T01:45:10.191Z,35.27
2024-02-22T01:45:41.792Z,35.07
2024-02-22T01:46:13.366Z,35.22
2024-02-22T01:46:44.980Z,35.10
2024-02-22T01:47:16.595Z,35.25
2024-02-22T01:47:48.254Z,35.07
2024-02-22T01:48:19.907Z,35.56
2024-02-22T01:48:51.627Z,35.49
2024-02-22T01:49:23.917Z,35.00
2024-02-22T01:49:55.443Z,34.86
2024-02-22T01:50:27.007Z,35.19
2024-02-22T01:50:58.509Z,35.29
2024-02-22T01:51:30.037Z,35.49
2024-02-22T01:52:01.917Z,35.10
2024-02-22T01:52:33.393Z,35.16
2024-02-22T01:53:05.129Z,35.32
2024-02-22T01:53:36.666Z,35.01
2024-02-22T01:54:08.311Z,35.00
2024-02-22T01:54:39.846Z,35.09
2024-02-22T01:55:11.660Z,35.06
2024-02-22T01:55:43.290Z,35.03
2024-02-22T01:56:14.823Z,35.05
2024-02-22T01:56:46.378Z,35.09
2024-02-22T01:57:17.893Z,35.07
2024-02-22T01:57:49.627Z,35.05
2024-02-22T01:58:21.349Z,35.12
2024-02-22T01:58:52.990Z,35.04
2024-02-22T01:59:24.599Z,34.89
2024-02-22T01:59:56.237Z,35.14
2024-02-22T02:00:27.742Z,35.02
2024-02-22T02:01:02.164Z,35.25
2024-02-22T02:01:33.720Z,35.05
2024-02-22T02:02:05.282Z,35.34
2024-02-22T02:02:36.804Z,35.27
2024-02-22T02:03:08.323Z,35.03
2024-02-22T02:03:39.969Z,34.79
2024-02-22T02:04:11.524Z,35.19
2024-02-22T02:04:43.096Z,35.02
2024-02-22T02:05:14.604Z,35.33
2024-02-22T02:05:46.113Z,34.99
2024-02-22T02:06:17.947Z,35.13
2024-02-22T02:06:49.513Z,35.04
2024-02-22T02:07:21.041Z,35.48
2024-02-22T02:07:52.500Z,35.49
2024-02-22T02:08:24.408Z,35.50
2024-02-22T02:08:55.979Z,35.37
2024-02-22T02:09:27.457Z,35.49
2024-02-22T02:09:59.025Z,35.48
2024-02-22T02:10:30.525Z,35.29
2024-02-22T02:11:02.188Z,35.39
2024-02-22T02:11:33.978Z,35.17
2024-02-22T02:12:05.765Z,35.11
2024-02-22T02:12:37.325Z,35.31
2024-02-22T02:13:08.830Z,35.12
2024-02-22T02:13:40.358Z,35.08
2024-02-22T02:14:12.068Z,35.12
2024-02-22T02:14:43.599Z,35.25
2024-02-22T02:15:15.015Z,35.04
2024-02-22T02:15:46.418Z,35.09
2024-02-22T02:16:17.931Z,35.39
2024-02-22T02:16:49.493Z,35.15
2024-02-22T02:17:21.052Z,34.92
2024-02-22T02:17:52.578Z,35.33
2024-02-22T02:18:24.244Z,35.12
2024-02-22T02:18:55.834Z,35.11
2024-02-22T02:19:27.437Z,35.39
2024-02-22T02:20:00.779Z,35.32
2024-02-22T02:20:33.821Z,35.15
2024-02-22T02:21:23.953Z,35.29
2024-02-22T02:22:06.399Z,35.43
2024-02-22T02:22:46.765Z,35.34
2024-02-22T02:23:25.378Z,35.32
2024-02-22T02:24:00.889Z,35.05
2024-02-22T02:24:38.238Z,35.20
2024-02-22T02:25:09.790Z,35.09
2024-02-22T02:25:44.457Z,35.47
2024-02-22T02:26:15.972Z,35.50
2024-02-22T02:26:47.494Z,35.20
2024-02-22T02:27:18.976Z,35.32
2024-02-22T02:27:50.451Z,35.39
2024-02-22T02:28:21.897Z,35.14
2024-02-22T02:28:53.352Z,35.38
2024-02-22T02:29:24.936Z,35.46
2024-02-22T02:29:56.434Z,35.37
2024-02-22T02:30:27.906Z,35.38
2024-02-22T02:30:59.353Z,35.46
2024-02-22T02:31:30.855Z,35.56
2024-02-22T02:32:02.428Z,35.67
2024-02-22T02:32:33.972Z,35.51
2024-02-22T02:33:05.704Z,35.33
2024-02-22T02:33:37.325Z,35.61
2024-02-22T02:34:09.110Z,35.57
2024-02-22T02:34:40.833Z,35.23
2024-02-22T02:35:12.370Z,35.23
2024-02-22T02:35:43.999Z,35.45
2024-02-22T02:36:15.561Z,35.47
2024-02-22T02:36:47.061Z,35.62
2024-02-22T02:37:18.594Z,35.42
2024-02-22T02:37:50.169Z,35.43
2024-02-22T02:38:21.720Z,35.48
2024-02-22T02:38:53.262Z,35.48
2024-02-22T02:39:24.764Z,35.41
2024-02-22T02:39:56.322Z,35.16
2024-02-22T02:40:27.806Z,35.21
2024-02-22T02:40:59.301Z,35.47
2024-02-22T02:41:30.811Z,35.38
2024-02-22T02:42:02.263Z,35.43
2024-02-22T02:42:33.719Z,35.10
2024-02-22T02:43:05.316Z,35.25
2024-02-22T02:43:36.895Z,35.47
2024-02-22T02:44:08.478Z,35.55
2024-02-22T02:44:39.971Z,35.47
2024-02-22T02:45:11.519Z,35.26
2024-02-22T02:45:43.117Z,35.65
2024-02-22T02:46:14.690Z,35.71
2024-02-22T02:46:46.247Z,35.65
2024-02-22T02:47:17.767Z,35.48
2024-02-22T02:47:49.393Z,35.32
2024-02-22T02:48:21.152Z,35.51
2024-02-22T02:48:52.814Z,35.60
2024-02-22T02:49:24.361Z,35.60
2024-02-22T02:49:55.865Z,35.42
2024-02-22T02:50:27.332Z,35.49
2024-02-22T02:50:58.745Z,35.60
2024-02-22T02:51:30.190Z,35.49
2024-02-22T02:52:01.636Z,35.66
2024-02-22T02:52:33.196Z,35.88
2024-02-22T02:53:04.727Z,35.77
2024-02-22T02:53:36.219Z,35.65
2024-02-22T02:54:07.677Z,35.76
2024-02-22T02:54:39.169Z,35.52
2024-02-22T02:55:10.620Z,35.53
2024-02-22T02:55:42.234Z,35.45
2024-02-22T02:56:13.892Z,35.34
2024-02-22T02:56:45.371Z,35.44
2024-02-22T02:57:16.835Z,35.42
2024-02-22T02:57:48.376Z,35.50
2024-02-22T02:58:19.870Z,35.42
2024-02-22T02:58:51.461Z,35.47
2024-02-22T02:59:22.999Z,35.46
2024-02-22T02:59:54.455Z,35.75
2024-02-22T03:00:25.975Z,35.44
2024-02-22T03:00:57.508Z,35.61
2024-02-22T03:01:29.209Z,35.46
2024-02-22T03:02:00.757Z,35.54
2024-02-22T03:02:32.288Z,35.69
2024-02-22T03:03:03.867Z,35.64
2024-02-22T03:03:35.369Z,35.25
2024-02-22T03:04:06.936Z,35.40
2024-02-22T03:04:38.496Z,35.50
2024-02-22T03:05:10.268Z,35.66
2024-02-22T03:05:41.959Z,35.47
2024-02-22T03:06:13.490Z,35.48
2024-02-22T03:06:45.928Z,35.75
2024-02-22T03:07:17.369Z,35.44
2024-02-22T03:07:48.914Z,35.60
2024-02-22T03:08:20.431Z,35.72
2024-02-22T03:08:51.906Z,35.85
2024-02-22T03:09:23.321Z,35.67
2024-02-22T03:09:54.767Z,35.74
2024-02-22T03:10:26.269Z,35.71
2024-02-22T03:10:57.817Z,35.83
2024-02-22T03:11:29.407Z,35.76
2024-02-22T03:12:00.973Z,35.69
2024-02-22T03:12:32.588Z,35.50
2024-02-22T03:13:07.068Z,35.56
2024-02-22T03:13:38.589Z,35.55
2024-02-22T03:14:10.201Z,35.68
2024-02-22T03:14:41.700Z,35.79
2024-02-22T03:15:13.203Z,35.40
2024-02-22T03:15:44.634Z,35.39
2024-02-22T03:16:16.196Z,35.55
2024-02-22T03:16:47.721Z,35.62
2024-02-22T03:17:19.337Z,35.74
2024-02-22T03:17:50.866Z,35.66
2024-02-22T03:18:22.361Z,35.85
2024-02-22T03:18:54.210Z,35.82
2024-02-22T03:19:25.752Z,35.68
2024-02-22T03:19:57.204Z,36.07
2024-02-22T03:20:28.724Z,35.43
2024-02-22T03:21:00.593Z,35.44
2024-02-22T03:21:32.011Z,35.55
2024-02-22T03:22:03.557Z,35.51
2024-02-22T03:22:35.007Z,35.80
2024-02-22T03:23:06.463Z,35.68
2024-02-22T03:23:37.970Z,35.55
2024-02-22T03:24:09.475Z,35.46
2024-02-22T03:24:40.973Z,35.69
2024-02-22T03:25:12.452Z,35.63
2024-02-22T03:25:43.900Z,35.43
2024-02-22T03:26:15.499Z,35.57
2024-02-22T03:26:47.023Z,35.64
2024-02-22T03:27:18.475Z,35.78
2024-02-22T03:27:49.894Z,35.53
2024-02-22T03:28:21.321Z,35.72
2024-02-22T03:28:52.891Z,35.52
2024-02-22T03:29:24.373Z,35.41
2024-02-22T03:29:55.828Z,35.40
2024-02-22T03:30:27.494Z,35.46
2024-02-22T03:30:59.069Z,35.54
2024-02-22T03:31:30.590Z,35.82
2024-02-22T03:32:02.116Z,35.62
2024-02-22T03:32:33.675Z,35.50
2024-02-22T03:33:05.305Z,35.79
2024-02-22T03:33:36.904Z,35.67
2024-02-22T03:34:08.507Z,35.54
2024-02-22T03:34:40.134Z,35.87
2024-02-22T03:35:11.652Z,35.52
2024-02-22T03:35:43.086Z,35.53
2024-02-22T03:36:14.701Z,35.64
2024-02-22T03:36:46.191Z,35.82
2024-02-22T03:37:17.677Z,35.51
2024-02-22T03:37:49.289Z,35.46
2024-02-22T03:38:21.026Z,35.59
2024-02-22T03:38:52.629Z,35.68
2024-02-22T03:39:24.138Z,35.51
2024-02-22T03:39:55.568Z,35.58
2024-02-22T03:40:27.151Z,35.55
2024-02-22T03:40:58.683Z,35.63
2024-02-22T03:41:30.195Z,35.79
2024-02-22T03:42:01.681Z,36.00
2024-02-22T03:42:33.177Z,35.60
2024-02-22T03:43:04.712Z,35.94
2024-02-22T03:43:36.218Z,35.66
2024-02-22T03:44:07.781Z,35.66
2024-02-22T03:44:39.212Z,35.90
2024-02-22T03:45:10.670Z,35.58
2024-02-22T03:45:42.196Z,35.68
2024-02-22T03:46:13.611Z,35.72
2024-02-22T03:46:47.921Z,35.41
2024-02-22T03:47:19.459Z,35.68
2024-02-22T03:47:51.135Z,35.58
2024-02-22T03:48:22.774Z,35.74
2024-02-22T03:48:54.304Z,35.49
2024-02-22T03:49:25.863Z,35.81
2024-02-22T03:49:57.583Z,35.76
2024-02-22T03:50:29.028Z,35.45
2024-02-22T03:51:00.465Z,35.60
2024-02-22T03:51:31.914Z,35.62
2024-02-22T03:52:03.464Z,35.86
2024-02-22T03:52:35.007Z,35.81
2024-02-22T03:53:06.573Z,35.51
2024-02-22T03:53:38.058Z,35.71
2024-02-22T03:54:09.545Z,35.92
2024-02-22T03:54:41.133Z,35.48
2024-02-22T03:55:12.647Z,35.54
2024-02-22T03:55:44.160Z,35.81
2024-02-22T03:56:15.753Z,35.98
2024-02-22T03:56:47.231Z,35.60
2024-02-22T03:57:18.671Z,35.83
2024-02-22T03:57:50.149Z,35.77
2024-02-22T03:58:21.619Z,35.47
2024-02-22T03:58:53.118Z,35.59
2024-02-22T03:59:24.602Z,35.60
2024-02-22T03:59:56.081Z,35.74
2024-02-22T04:00:27.541Z,35.57
2024-02-22T04:00:59.140Z,35.78
2024-02-22T04:01:30.788Z,35.77
2024-02-22T04:02:02.309Z,35.78
2024-02-22T04:02:33.871Z,35.72
2024-02-22T04:03:05.435Z,36.20
2024-02-22T04:03:37.040Z,35.97
2024-02-22T04:04:08.672Z,35.80
2024-02-22T04:04:48.665Z,35.69
2024-02-22T04:05:20.336Z,35.77
2024-02-22T04:05:51.955Z,35.83
2024-02-22T04:06:23.817Z,35.83
2024-02-22T04:06:55.427Z,35.89
2024-02-22T04:07:27.000Z,35.84
2024-02-22T04:07:58.550Z,35.92
2024-02-22T04:08:30.054Z,35.81
2024-02-22T04:09:01.609Z,35.90
2024-02-22T04:09:33.080Z,36.04
2024-02-22T04:10:04.720Z,35.97
2024-02-22T04:10:36.233Z,36.02
2024-02-22T04:11:07.944Z,35.71
2024-02-22T04:11:39.625Z,35.89
2024-02-22T04:12:11.091Z,36.00
2024-02-22T04:12:42.580Z,35.67
2024-02-22T04:13:14.119Z,35.88
2024-02-22T04:13:45.823Z,35.71
2024-02-22T04:14:17.287Z,35.81
2024-02-22T04:14:48.887Z,35.93
2024-02-22T04:15:20.439Z,35.96
2024-02-22T04:15:51.959Z,35.99
2024-02-22T04:16:23.416Z,35.67
2024-02-22T04:16:54.981Z,35.84
2024-02-22T04:17:26.507Z,36.14
2024-02-22T04:17:58.138Z,35.96
2024-02-22T04:18:29.744Z,36.04
2024-02-22T04:19:01.380Z,35.97
2024-02-22T04:19:32.994Z,35.97
2024-02-22T04:20:04.793Z,36.07
2024-02-22T04:20:36.297Z,35.78
2024-02-22T04:21:07.784Z,35.81
2024-02-22T04:21:41.994Z,35.85
2024-02-22T04:22:13.472Z,35.91
2024-02-22T04:22:45.690Z,35.93
2024-02-22T04:23:17.210Z,35.86
2024-02-22T04:23:48.739Z,35.87
2024-02-22T04:24:20.196Z,35.77
2024-02-22T04:24:51.686Z,35.92
2024-02-22T04:25:23.148Z,35.63
2024-02-22T04:25:54.687Z,35.77
2024-02-22T04:26:26.208Z,35.98
2024-02-22T04:26:57.654Z,35.79
2024-02-22T04:27:29.117Z,36.02
2024-02-22T04:28:00.531Z,35.83
2024-02-22T04:28:32.120Z,35.93
2024-02-22T04:29:03.893Z,36.14
2024-02-22T04:29:36.366Z,35.86
2024-02-22T04:30:08.046Z,35.77
2024-02-22T04:30:39.580Z,35.92
2024-02-22T04:31:11.421Z,36.11
2024-02-22T04:31:43.196Z,36.08
2024-02-22T04:32:14.712Z,35.83
2024-02-22T04:32:46.237Z,35.89
2024-02-22T04:33:18.001Z,35.65
2024-02-22T04:33:49.607Z,36.08
2024-02-22T04:34:21.259Z,35.91
2024-02-22T04:34:52.859Z,36.05
2024-02-22T04:35:24.579Z,35.75
2024-02-22T04:35:56.264Z,35.82
2024-02-22T04:36:27.837Z,35.82
2024-02-22T04:36:59.267Z,35.78
2024-02-22T04:37:30.736Z,35.84
2024-02-22T04:38:02.331Z,35.92
2024-02-22T04:38:34.038Z,35.83
2024-02-22T04:39:05.574Z,35.86
2024-02-22T04:39:37.018Z,35.96
2024-02-22T04:40:08.675Z,35.91
2024-02-22T04:40:40.207Z,36.04
2024-02-22T04:41:19.878Z,35.65
2024-02-22T04:41:53.350Z,36.01
2024-02-22T04:42:24.823Z,35.80
2024-02-22T04:42:56.324Z,36.12
2024-02-22T04:43:27.824Z,35.93
2024-02-22T04:43:59.357Z,35.73
2024-02-22T04:44:30.852Z,35.88
2024-02-22T04:45:02.385Z,35.75
2024-02-22T04:45:33.891Z,36.19
2024-02-22T04:46:05.393Z,36.22
2024-02-22T04:46:37.292Z,35.88
2024-02-22T04:47:08.980Z,36.01
2024-02-22T04:47:40.565Z,35.92
2024-02-22T04:48:12.116Z,35.87
2024-02-22T04:48:43.660Z,36.17
2024-02-22T04:49:15.251Z,35.86
2024-02-22T04:49:46.814Z,35.94
2024-02-22T04:50:18.373Z,35.88
2024-02-22T04:50:49.893Z,36.15
2024-02-22T04:51:21.341Z,36.03
2024-02-22T04:51:52.755Z,36.00
2024-02-22T04:52:24.222Z,36.07
2024-02-22T04:52:55.686Z,36.25
2024-02-22T04:53:27.154Z,35.99
2024-02-22T04:53:58.800Z,36.25
2024-02-22T04:54:30.518Z,35.89
2024-02-22T04:55:02.770Z,36.10
2024-02-22T04:55:34.305Z,36.07
2024-02-22T04:56:05.984Z,36.05
2024-02-22T04:56:37.426Z,35.82
2024-02-22T04:57:08.930Z,36.20
2024-02-22T04:57:40.420Z,36.03
2024-02-22T04:58:11.818Z,36.11
2024-02-22T04:58:43.356Z,36.05
2024-02-22T04:59:15.011Z,35.96
2024-02-22T04:59:46.555Z,36.00
2024-02-22T05:00:18.196Z,36.28
2024-02-22T05:00:49.757Z,36.16
2024-02-22T05:01:21.284Z,36.01
2024-02-22T05:01:52.912Z,35.92
2024-02-22T05:02:24.439Z,35.90
2024-02-22T05:02:55.883Z,35.97
2024-02-22T05:03:27.346Z,36.07
2024-02-22T05:03:58.950Z,36.23
2024-02-22T05:04:30.553Z,36.02
2024-02-22T05:05:02.231Z,35.98
2024-02-22T05:05:33.825Z,36.19
2024-02-22T05:06:05.755Z,36.20
2024-02-22T05:06:37.520Z,36.25
2024-02-22T05:07:09.106Z,36.29
2024-02-22T05:07:40.658Z,35.92
2024-02-22T05:08:12.226Z,36.16
2024-02-22T05:08:43.729Z,36.06
2024-02-22T05:09:15.249Z,36.17
2024-02-22T05:09:46.776Z,36.07
2024-02-22T05:10:18.313Z,35.81
2024-02-22T05:10:50.664Z,35.91
2024-02-22T05:11:22.323Z,36.20
2024-02-22T05:11:54.020Z,35.87
2024-02-22T05:12:25.601Z,35.83
2024-02-22T05:12:57.066Z,36.06
2024-02-22T05:13:28.538Z,36.16
2024-02-22T05:14:00.009Z,36.19
2024-02-22T05:14:31.466Z,36.02
2024-02-22T05:15:03.047Z,35.87
2024-02-22T05:15:34.612Z,36.17
2024-02-22T05:16:06.442Z,36.18
2024-02-22T05:16:37.983Z,35.91
2024-02-22T05:17:09.503Z,35.96
2024-02-22T05:17:41.081Z,36.33
2024-02-22T05:18:12.790Z,36.06
2024-02-22T05:18:44.375Z,35.91
2024-02-22T05:19:16.845Z,35.90
2024-02-22T05:19:48.669Z,36.22
2024-02-22T05:20:20.519Z,36.19
2024-02-22T05:20:52.211Z,35.99
2024-02-22T05:21:23.661Z,36.11
2024-02-22T05:21:55.211Z,36.16
2024-02-22T05:22:26.641Z,36.01
2024-02-22T05:22:58.110Z,36.10
2024-02-22T05:23:29.534Z,36.01
2024-02-22T05:24:01.145Z,35.94
2024-02-22T05:24:32.663Z,36.11
2024-02-22T05:25:04.413Z,36.18
2024-02-22T05:25:36.061Z,36.10
2024-02-22T05:26:07.586Z,35.98
2024-02-22T05:26:39.064Z,36.00
2024-02-22T05:27:10.597Z,35.78
2024-02-22T05:27:42.017Z,36.19
2024-02-22T05:28:13.480Z,36.38
2024-02-22T05:28:45.020Z,35.87
2024-02-22T05:29:16.621Z,35.90
2024-02-22T05:29:48.221Z,35.96
2024-02-22T05:30:19.701Z,36.19
2024-02-22T05:30:51.228Z,36.25
2024-02-22T05:31:26.007Z,36.14
2024-02-22T05:31:57.577Z,36.05
2024-02-22T05:32:29.166Z,35.86
2024-02-22T05:33:00.638Z,35.99
2024-02-22T05:33:32.266Z,36.31
2024-02-22T05:34:03.884Z,36.24
2024-02-22T05:34:35.524Z,36.29
2024-02-22T05:35:07.177Z,35.94
2024-02-22T05:35:38.892Z,36.30
2024-02-22T05:36:10.340Z,36.11
2024-02-22T05:36:41.819Z,36.26
2024-02-22T05:37:13.258Z,36.21
2024-02-22T05:37:44.760Z,36.26
2024-02-22T05:38:16.317Z,36.42
2024-02-22T05:38:48.004Z,36.32
2024-02-22T05:39:19.491Z,36.28
2024-02-22T05:39:51.113Z,36.26
2024-02-22T05:40:22.654Z,36.27
2024-02-22T05:40:54.147Z,36.16
2024-02-22T05:41:25.584Z,36.25
2024-02-22T05:41:57.132Z,36.32
2024-02-22T05:42:28.673Z,36.18
2024-02-22T05:43:00.217Z,36.09
2024-02-22T05:43:31.686Z,36.23
2024-02-22T05:44:03.374Z,36.01
2024-02-22T05:44:35.065Z,36.43
2024-02-22T05:45:07.672Z,36.25
2024-02-22T05:45:39.378Z,36.25
2024-02-22T05:46:10.875Z,36.15
2024-02-22T05:46:42.365Z,36.33
2024-02-22T05:47:13.956Z,36.08
2024-02-22T05:47:45.592Z,36.01
2024-02-22T05:48:17.303Z,36.15
2024-02-22T05:48:48.954Z,35.90
2024-02-22T05:49:20.955Z,36.05
2024-02-22T05:49:52.612Z,36.00
2024-02-22T05:50:24.126Z,36.30
2024-02-22T05:50:55.651Z,36.33
2024-02-22T05:51:27.303Z,35.89
2024-02-22T05:51:58.767Z,36.24
2024-02-22T05:52:30.280Z,36.43
2024-02-22T05:53:01.856Z,36.15
2024-02-22T05:53:33.390Z,36.22
2024-02-22T05:54:05.041Z,36.06
2024-02-22T05:54:36.501Z,36.03
2024-02-22T05:55:40.541Z,36.00
2024-02-22T05:56:11.964Z,36.21
2024-02-22T05:56:43.299Z,36.10
2024-02-22T05:57:15.127Z,36.16
2024-02-22T05:57:46.730Z,36.05
2024-02-22T05:58:18.377Z,36.13
2024-02-22T05:58:50.104Z,36.06
2024-02-22T05:59:21.743Z,36.02
2024-02-22T05:59:53.364Z,36.00
2024-02-22T06:00:25.045Z,36.29
2024-02-22T06:00:56.703Z,36.27
2024-02-22T06:01:28.677Z,36.02
2024-02-22T06:02:00.599Z,36.07
2024-02-22T06:02:32.530Z,36.30
2024-02-22T06:03:07.908Z,36.08
2024-02-22T06:03:42.257Z,36.16
2024-02-22T06:04:14.017Z,36.31
2024-02-22T06:04:45.876Z,36.21
2024-02-22T06:05:17.649Z,35.99
2024-02-22T06:05:49.515Z,36.40
2024-02-22T06:06:21.388Z,36.12
2024-02-22T06:06:53.167Z,36.25
2024-02-22T06:07:24.966Z,36.27
2024-02-22T06:07:56.762Z,36.10
2024-02-22T06:08:28.529Z,36.31
2024-02-22T06:09:00.261Z,36.38
2024-02-22T06:09:31.974Z,35.93
2024-02-22T06:10:03.750Z,36.49
2024-02-22T06:10:35.471Z,36.45
2024-02-22T06:11:07.186Z,36.45
2024-02-22T06:11:39.021Z,36.33
2024-02-22T06:12:15.268Z,36.21
2024-02-22T06:12:47.814Z,36.45
2024-02-22T06:13:19.502Z,36.29
2024-02-22T06:13:51.208Z,35.94
2024-02-22T06:14:22.890Z,36.50
2024-02-22T06:14:54.714Z,36.44
2024-02-22T06:15:26.437Z,36.16
2024-02-22T06:15:58.046Z,36.40
2024-02-22T06:16:29.637Z,36.28
2024-02-22T06:17:01.316Z,36.13
2024-02-22T06:17:33.056Z,36.27
2024-02-22T06:18:05.112Z,36.19
2024-02-22T06:18:38.330Z,36.34
2024-02-22T06:19:10.430Z,36.39
2024-02-22T06:19:42.161Z,36.18
2024-02-22T06:20:13.891Z,36.66
2024-02-22T06:20:45.575Z,36.15
2024-02-22T06:21:17.230Z,36.05
2024-02-22T06:21:48.915Z,36.39
2024-02-22T06:22:20.571Z,36.15
2024-02-22T06:22:52.253Z,36.01
2024-02-22T06:23:24.090Z,36.06
2024-02-22T06:23:56.115Z,35.97
2024-02-22T06:24:27.762Z,36.38
2024-02-22T06:24:59.560Z,36.42
2024-02-22T06:25:31.245Z,36.37
2024-02-22T06:26:02.999Z,36.04
2024-02-22T06:26:34.987Z,36.14
2024-02-22T06:27:06.656Z,36.33
2024-02-22T06:27:40.522Z,36.14
2024-02-22T06:28:12.165Z,36.58
2024-02-22T06:28:43.848Z,36.29
2024-02-22T06:29:15.580Z,36.07
2024-02-22T06:29:47.380Z,36.32
2024-02-22T06:30:19.094Z,36.33
2024-02-22T06:30:50.762Z,36.43
2024-02-22T06:31:23.913Z,36.27
2024-02-22T06:31:56.653Z,36.12
2024-02-22T06:32:28.462Z,36.13
2024-02-22T06:33:00.382Z,36.17
2024-02-22T06:33:32.386Z,36.27
2024-02-22T06:34:04.067Z,36.46
2024-02-22T06:34:35.782Z,36.15
2024-02-22T06:35:07.970Z,36.39
2024-02-22T06:35:39.686Z,36.33
2024-02-22T06:36:11.412Z,36.28
2024-02-22T06:36:43.115Z,36.47
2024-02-22T06:37:14.848Z,36.35
2024-02-22T06:37:46.552Z,36.21
2024-02-22T06:38:18.315Z,36.58
2024-02-22T06:38:50.084Z,36.41
2024-02-22T06:39:21.713Z,36.23
2024-02-22T06:39:53.425Z,36.27
2024-02-22T06:40:25.087Z,36.32
2024-02-22T06:40:56.748Z,36.37
2024-02-22T06:41:28.488Z,36.33
2024-02-22T06:42:00.235Z,36.10
2024-02-22T06:42:31.902Z,36.05
2024-02-22T06:43:03.601Z,36.02
2024-02-22T06:43:35.312Z,36.15
2024-02-22T06:44:07.054Z,36.45
2024-02-22T06:44:38.711Z,36.20
2024-02-22T06:45:10.555Z,36.12
2024-02-22T06:45:42.295Z,36.19
2024-02-22T06:46:14.752Z,36.33
2024-02-22T06:46:46.525Z,36.19
2024-02-22T06:47:18.278Z,36.49
2024-02-22T06:47:50.089Z,36.21
2024-02-22T06:48:21.898Z,36.25
2024-02-22T06:48:53.697Z,36.21
2024-02-22T06:49:25.845Z,36.14